sensor_id;sensor_type;location;lat;lon;timestamp;P1;durP1;ratioP1;P2;durP2;ratioP2
76597;SDS011;65486;53.144;18.134;2023-03-01T00:02:05;60.00;;;22.60;;
76597;SDS011;65486;53.144;18.134;2023-03-01T00:04:34;76.60;;;25.30;;
76597;SDS011;65486;53.144;18.134;2023-03-01T00:07:02;81.00;;;27.90;;
76597;SDS011;65486;53.144;18.134;2023-03-01T00:09:37;65.20;;;26.40;;
76597;SDS011;65486;53.144;18.134;2023-03-01T00:12:04;68.80;;;24.80;;
76597;SDS011;65486;53.144;18.134;2023-03-01T00:14:33;80.10;;;28.20;;
76597;SDS011;65486;53.144;18.134;2023-03-01T00:16:59;81.30;;;30.30;;
76597;SDS011;65486;53.144;18.134;2023-03-01T00:19:26;68.60;;;25.10;;
76597;SDS011;65486;53.144;18.134;2023-03-01T00:21:52;79.80;;;27.50;;
76597;SDS011;65486;53.144;18.134;2023-03-01T00:24:19;81.00;;;30.20;;
76597;SDS011;65486;53.144;18.134;2023-03-01T00:26:45;64.70;;;24.80;;
76597;SDS011;65486;53.144;18.134;2023-03-01T00:29:14;48.40;;;17.90;;
76597;SDS011;65486;53.144;18.134;2023-03-01T00:31:42;61.70;;;23.20;;
76597;SDS011;65486;53.144;18.134;2023-03-01T00:34:09;65.40;;;23.50;;
76597;SDS011;65486;53.144;18.134;2023-03-01T00:36:37;69.50;;;25.70;;
76597;SDS011;65486;53.144;18.134;2023-03-01T00:39:07;77.50;;;29.00;;
76597;SDS011;65486;53.144;18.134;2023-03-01T00:41:38;78.20;;;27.60;;
76597;SDS011;65486;53.144;18.134;2023-03-01T00:44:05;72.70;;;27.70;;
76597;SDS011;65486;53.144;18.134;2023-03-01T00:46:32;71.80;;;27.00;;
76597;SDS011;65486;53.144;18.134;2023-03-01T00:48:59;70.30;;;24.40;;
76597;SDS011;65486;53.144;18.134;2023-03-01T00:51:30;69.70;;;26.90;;
76597;SDS011;65486;53.144;18.134;2023-03-01T00:54:04;85.40;;;31.40;;
76597;SDS011;65486;53.144;18.134;2023-03-01T00:56:30;72.30;;;26.50;;
76597;SDS011;65486;53.144;18.134;2023-03-01T00:59:00;77.60;;;29.40;;
76597;SDS011;65486;53.144;18.134;2023-03-01T01:01:28;79.00;;;27.40;;
76597;SDS011;65486;53.144;18.134;2023-03-01T01:06:24;79.30;;;29.40;;
76597;SDS011;65486;53.144;18.134;2023-03-01T01:08:54;78.50;;;28.90;;
76597;SDS011;65486;53.144;18.134;2023-03-01T01:11:21;66.30;;;24.10;;
76597;SDS011;65486;53.144;18.134;2023-03-01T01:13:52;73.20;;;27.40;;
76597;SDS011;65486;53.144;18.134;2023-03-01T01:16:20;81.40;;;28.20;;
76597;SDS011;65486;53.144;18.134;2023-03-01T01:18:51;70.60;;;25.70;;
76597;SDS011;65486;53.144;18.134;2023-03-01T01:21:20;76.40;;;26.70;;
76597;SDS011;65486;53.144;18.134;2023-03-01T01:23:50;63.10;;;23.70;;
76597;SDS011;65486;53.144;18.134;2023-03-01T01:26:19;63.20;;;24.40;;
76597;SDS011;65486;53.144;18.134;2023-03-01T01:28:49;67.40;;;27.20;;
76597;SDS011;65486;53.144;18.134;2023-03-01T01:31:16;69.80;;;25.20;;
76597;SDS011;65486;53.144;18.134;2023-03-01T01:33:48;63.20;;;22.90;;
76597;SDS011;65486;53.144;18.134;2023-03-01T01:36:15;68.90;;;24.70;;
76597;SDS011;65486;53.144;18.134;2023-03-01T01:38:53;59.30;;;22.80;;
76597;SDS011;65486;53.144;18.134;2023-03-01T01:41:19;56.60;;;20.30;;
76597;SDS011;65486;53.144;18.134;2023-03-01T01:43:50;55.40;;;20.80;;
76597;SDS011;65486;53.144;18.134;2023-03-01T01:47:24;47.70;;;18.50;;
76597;SDS011;65486;53.144;18.134;2023-03-01T01:49:53;41.60;;;15.30;;
76597;SDS011;65486;53.144;18.134;2023-03-01T01:54:59;61.60;;;21.80;;
76597;SDS011;65486;53.144;18.134;2023-03-01T01:57:34;47.10;;;18.30;;
76597;SDS011;65486;53.144;18.134;2023-03-01T02:00:14;43.00;;;16.40;;
76597;SDS011;65486;53.144;18.134;2023-03-01T02:02:46;53.30;;;18.60;;
76597;SDS011;65486;53.144;18.134;2023-03-01T02:08:30;59.40;;;23.10;;
76597;SDS011;65486;53.144;18.134;2023-03-01T02:11:00;67.70;;;24.00;;
76597;SDS011;65486;53.144;18.134;2023-03-01T02:13:27;57.40;;;20.10;;
76597;SDS011;65486;53.144;18.134;2023-03-01T02:15:54;50.80;;;19.70;;
76597;SDS011;65486;53.144;18.134;2023-03-01T02:18:22;53.60;;;19.40;;
76597;SDS011;65486;53.144;18.134;2023-03-01T02:21:21;56.10;;;19.00;;
76597;SDS011;65486;53.144;18.134;2023-03-01T02:26:54;55.70;;;21.10;;
76597;SDS011;65486;53.144;18.134;2023-03-01T02:29:23;46.40;;;18.90;;
76597;SDS011;65486;53.144;18.134;2023-03-01T02:31:50;49.20;;;17.50;;
76597;SDS011;65486;53.144;18.134;2023-03-01T02:34:21;50.70;;;18.90;;
76597;SDS011;65486;53.144;18.134;2023-03-01T02:36:54;47.30;;;16.90;;
76597;SDS011;65486;53.144;18.134;2023-03-01T02:39:31;55.70;;;19.80;;
76597;SDS011;65486;53.144;18.134;2023-03-01T02:42:23;32.50;;;11.60;;
76597;SDS011;65486;53.144;18.134;2023-03-01T02:45:25;48.70;;;16.30;;
76597;SDS011;65486;53.144;18.134;2023-03-01T02:47:56;46.50;;;17.60;;
76597;SDS011;65486;53.144;18.134;2023-03-01T02:52:57;38.90;;;15.50;;
76597;SDS011;65486;53.144;18.134;2023-03-01T02:55:41;59.50;;;20.40;;
76597;SDS011;65486;53.144;18.134;2023-03-01T02:58:11;48.40;;;16.70;;
76597;SDS011;65486;53.144;18.134;2023-03-01T03:00:41;53.60;;;20.00;;
76597;SDS011;65486;53.144;18.134;2023-03-01T03:03:16;47.80;;;17.40;;
76597;SDS011;65486;53.144;18.134;2023-03-01T03:05:45;44.10;;;15.90;;
76597;SDS011;65486;53.144;18.134;2023-03-01T03:08:12;44.30;;;16.60;;
76597;SDS011;65486;53.144;18.134;2023-03-01T03:10:40;46.10;;;16.40;;
76597;SDS011;65486;53.144;18.134;2023-03-01T03:13:10;43.20;;;16.10;;
76597;SDS011;65486;53.144;18.134;2023-03-01T03:15:38;47.10;;;18.40;;
76597;SDS011;65486;53.144;18.134;2023-03-01T03:18:11;41.80;;;16.50;;
76597;SDS011;65486;53.144;18.134;2023-03-01T03:20:41;46.90;;;17.90;;
76597;SDS011;65486;53.144;18.134;2023-03-01T03:23:13;40.90;;;15.70;;
76597;SDS011;65486;53.144;18.134;2023-03-01T03:25:40;42.30;;;17.10;;
76597;SDS011;65486;53.144;18.134;2023-03-01T03:28:09;41.00;;;16.60;;
76597;SDS011;65486;53.144;18.134;2023-03-01T03:30:38;44.20;;;17.30;;
76597;SDS011;65486;53.144;18.134;2023-03-01T03:33:06;48.90;;;17.60;;
76597;SDS011;65486;53.144;18.134;2023-03-01T03:35:42;46.40;;;18.10;;
76597;SDS011;65486;53.144;18.134;2023-03-01T03:38:12;45.80;;;17.90;;
76597;SDS011;65486;53.144;18.134;2023-03-01T03:40:54;38.50;;;15.20;;
76597;SDS011;65486;53.144;18.134;2023-03-01T03:43:45;51.80;;;18.80;;
76597;SDS011;65486;53.144;18.134;2023-03-01T03:46:20;45.90;;;17.20;;
76597;SDS011;65486;53.144;18.134;2023-03-01T03:48:47;34.80;;;12.50;;
76597;SDS011;65486;53.144;18.134;2023-03-01T03:51:15;28.40;;;11.90;;
76597;SDS011;65486;53.144;18.134;2023-03-01T03:53:43;36.30;;;13.40;;
76597;SDS011;65486;53.144;18.134;2023-03-01T03:56:11;44.20;;;18.50;;
76597;SDS011;65486;53.144;18.134;2023-03-01T03:58:47;47.30;;;17.50;;
76597;SDS011;65486;53.144;18.134;2023-03-01T04:01:22;47.30;;;18.40;;
76597;SDS011;65486;53.144;18.134;2023-03-01T04:03:51;51.50;;;20.10;;
76597;SDS011;65486;53.144;18.134;2023-03-01T04:06:41;54.00;;;21.20;;
76597;SDS011;65486;53.144;18.134;2023-03-01T04:09:11;48.70;;;20.10;;
76597;SDS011;65486;53.144;18.134;2023-03-01T04:11:38;52.70;;;19.90;;
76597;SDS011;65486;53.144;18.134;2023-03-01T04:14:05;54.10;;;21.10;;
76597;SDS011;65486;53.144;18.134;2023-03-01T04:16:31;56.60;;;20.20;;
76597;SDS011;65486;53.144;18.134;2023-03-01T04:19:00;51.20;;;20.70;;
76597;SDS011;65486;53.144;18.134;2023-03-01T04:21:31;53.10;;;21.80;;
76597;SDS011;65486;53.144;18.134;2023-03-01T04:23:58;57.20;;;22.30;;
76597;SDS011;65486;53.144;18.134;2023-03-01T04:26:31;59.90;;;22.20;;
76597;SDS011;65486;53.144;18.134;2023-03-01T04:29:08;58.00;;;22.40;;
76597;SDS011;65486;53.144;18.134;2023-03-01T04:31:36;61.90;;;23.80;;
76597;SDS011;65486;53.144;18.134;2023-03-01T04:34:02;59.70;;;22.10;;
76597;SDS011;65486;53.144;18.134;2023-03-01T04:36:29;52.60;;;19.60;;
76597;SDS011;65486;53.144;18.134;2023-03-01T04:38:55;47.80;;;17.60;;
76597;SDS011;65486;53.144;18.134;2023-03-01T04:41:23;55.50;;;21.10;;
76597;SDS011;65486;53.144;18.134;2023-03-01T04:43:52;48.60;;;19.80;;
76597;SDS011;65486;53.144;18.134;2023-03-01T04:46:19;46.90;;;18.10;;
76597;SDS011;65486;53.144;18.134;2023-03-01T04:48:47;50.80;;;19.00;;
76597;SDS011;65486;53.144;18.134;2023-03-01T04:51:14;50.90;;;19.20;;
76597;SDS011;65486;53.144;18.134;2023-03-01T04:53:43;47.70;;;19.30;;
76597;SDS011;65486;53.144;18.134;2023-03-01T04:56:10;55.50;;;22.00;;
76597;SDS011;65486;53.144;18.134;2023-03-01T04:58:37;55.30;;;22.00;;
76597;SDS011;65486;53.144;18.134;2023-03-01T05:01:17;54.60;;;21.40;;
76597;SDS011;65486;53.144;18.134;2023-03-01T05:03:52;54.00;;;20.10;;
76597;SDS011;65486;53.144;18.134;2023-03-01T05:06:30;68.80;;;26.20;;
76597;SDS011;65486;53.144;18.134;2023-03-01T05:09:22;74.60;;;26.30;;
76597;SDS011;65486;53.144;18.134;2023-03-01T05:11:52;56.10;;;20.20;;
76597;SDS011;65486;53.144;18.134;2023-03-01T05:14:20;50.40;;;18.40;;
76597;SDS011;65486;53.144;18.134;2023-03-01T05:16:47;47.60;;;18.20;;
76597;SDS011;65486;53.144;18.134;2023-03-01T05:19:14;33.00;;;12.50;;
76597;SDS011;65486;53.144;18.134;2023-03-01T05:21:51;43.60;;;17.20;;
76597;SDS011;65486;53.144;18.134;2023-03-01T05:24:46;47.40;;;18.90;;
76597;SDS011;65486;53.144;18.134;2023-03-01T05:27:13;73.80;;;25.40;;
76597;SDS011;65486;53.144;18.134;2023-03-01T05:29:39;79.00;;;26.00;;
76597;SDS011;65486;53.144;18.134;2023-03-01T05:32:06;80.60;;;24.40;;
76597;SDS011;65486;53.144;18.134;2023-03-01T05:34:35;62.30;;;22.00;;
76597;SDS011;65486;53.144;18.134;2023-03-01T05:37:04;62.50;;;20.60;;
76597;SDS011;65486;53.144;18.134;2023-03-01T05:39:31;61.10;;;21.80;;
76597;SDS011;65486;53.144;18.134;2023-03-01T05:41:58;63.90;;;22.40;;
76597;SDS011;65486;53.144;18.134;2023-03-01T05:44:28;71.20;;;25.20;;
76597;SDS011;65486;53.144;18.134;2023-03-01T05:47:00;73.10;;;27.10;;
76597;SDS011;65486;53.144;18.134;2023-03-01T05:49:45;56.80;;;20.60;;
76597;SDS011;65486;53.144;18.134;2023-03-01T05:52:17;58.50;;;20.40;;
76597;SDS011;65486;53.144;18.134;2023-03-01T05:54:45;43.70;;;17.10;;
76597;SDS011;65486;53.144;18.134;2023-03-01T05:57:11;46.20;;;18.50;;
76597;SDS011;65486;53.144;18.134;2023-03-01T05:59:40;48.20;;;17.00;;
76597;SDS011;65486;53.144;18.134;2023-03-01T06:02:13;33.80;;;12.80;;
76597;SDS011;65486;53.144;18.134;2023-03-01T06:04:40;44.00;;;16.30;;
76597;SDS011;65486;53.144;18.134;2023-03-01T06:07:10;44.20;;;16.20;;
76597;SDS011;65486;53.144;18.134;2023-03-01T06:09:38;36.00;;;13.60;;
76597;SDS011;65486;53.144;18.134;2023-03-01T06:12:05;34.00;;;13.10;;
76597;SDS011;65486;53.144;18.134;2023-03-01T06:14:32;31.50;;;12.90;;
76597;SDS011;65486;53.144;18.134;2023-03-01T06:16:59;35.00;;;13.60;;
76597;SDS011;65486;53.144;18.134;2023-03-01T06:19:25;22.00;;;8.80;;
76597;SDS011;65486;53.144;18.134;2023-03-01T06:21:52;49.10;;;18.70;;
76597;SDS011;65486;53.144;18.134;2023-03-01T06:24:20;28.00;;;11.10;;
76597;SDS011;65486;53.144;18.134;2023-03-01T06:27:07;23.10;;;9.80;;
76597;SDS011;65486;53.144;18.134;2023-03-01T06:29:36;35.60;;;13.60;;
76597;SDS011;65486;53.144;18.134;2023-03-01T06:32:07;41.70;;;17.10;;
76597;SDS011;65486;53.144;18.134;2023-03-01T06:34:34;22.00;;;9.20;;
76597;SDS011;65486;53.144;18.134;2023-03-01T06:37:00;34.20;;;14.40;;
76597;SDS011;65486;53.144;18.134;2023-03-01T06:39:31;24.30;;;9.20;;
76597;SDS011;65486;53.144;18.134;2023-03-01T06:42:11;31.70;;;12.70;;
76597;SDS011;65486;53.144;18.134;2023-03-01T06:44:38;22.80;;;10.20;;
76597;SDS011;65486;53.144;18.134;2023-03-01T06:47:08;29.60;;;12.70;;
76597;SDS011;65486;53.144;18.134;2023-03-01T06:49:36;43.80;;;16.30;;
76597;SDS011;65486;53.144;18.134;2023-03-01T06:52:04;54.80;;;21.00;;
76597;SDS011;65486;53.144;18.134;2023-03-01T06:54:30;39.40;;;14.80;;
76597;SDS011;65486;53.144;18.134;2023-03-01T06:56:57;42.70;;;18.30;;
76597;SDS011;65486;53.144;18.134;2023-03-01T06:59:23;42.70;;;17.70;;
76597;SDS011;65486;53.144;18.134;2023-03-01T07:01:51;21.00;;;9.70;;
76597;SDS011;65486;53.144;18.134;2023-03-01T07:04:17;23.40;;;11.20;;
76597;SDS011;65486;53.144;18.134;2023-03-01T07:06:44;31.70;;;15.10;;
76597;SDS011;65486;53.144;18.134;2023-03-01T07:09:13;43.30;;;19.10;;
76597;SDS011;65486;53.144;18.134;2023-03-01T07:11:39;37.70;;;17.00;;
76597;SDS011;65486;53.144;18.134;2023-03-01T07:14:08;34.00;;;15.60;;
76597;SDS011;65486;53.144;18.134;2023-03-01T07:16:34;32.80;;;16.00;;
76597;SDS011;65486;53.144;18.134;2023-03-01T07:19:01;25.00;;;13.40;;
76597;SDS011;65486;53.144;18.134;2023-03-01T07:21:27;28.30;;;14.40;;
76597;SDS011;65486;53.144;18.134;2023-03-01T07:23:54;36.30;;;18.70;;
76597;SDS011;65486;53.144;18.134;2023-03-01T07:26:24;24.60;;;13.70;;
76597;SDS011;65486;53.144;18.134;2023-03-01T07:28:50;29.90;;;16.20;;
76597;SDS011;65486;53.144;18.134;2023-03-01T07:31:21;26.00;;;14.70;;
76597;SDS011;65486;53.144;18.134;2023-03-01T07:33:57;32.30;;;16.80;;
76597;SDS011;65486;53.144;18.134;2023-03-01T07:36:24;27.00;;;15.30;;
76597;SDS011;65486;53.144;18.134;2023-03-01T07:38:51;29.20;;;16.70;;
76597;SDS011;65486;53.144;18.134;2023-03-01T07:41:17;25.00;;;13.20;;
76597;SDS011;65486;53.144;18.134;2023-03-01T07:43:44;25.70;;;13.60;;
76597;SDS011;65486;53.144;18.134;2023-03-01T07:46:16;28.90;;;16.70;;
76597;SDS011;65486;53.144;18.134;2023-03-01T07:48:58;33.80;;;20.50;;
76597;SDS011;65486;53.144;18.134;2023-03-01T07:51:32;29.60;;;17.60;;
76597;SDS011;65486;53.144;18.134;2023-03-01T07:53:58;30.00;;;16.70;;
76597;SDS011;65486;53.144;18.134;2023-03-01T07:56:25;29.30;;;16.40;;
76597;SDS011;65486;53.144;18.134;2023-03-01T07:58:51;27.20;;;16.10;;
76597;SDS011;65486;53.144;18.134;2023-03-01T08:01:25;23.90;;;14.80;;
76597;SDS011;65486;53.144;18.134;2023-03-01T08:03:52;24.20;;;13.70;;
76597;SDS011;65486;53.144;18.134;2023-03-01T08:06:19;23.90;;;14.50;;
76597;SDS011;65486;53.144;18.134;2023-03-01T08:08:50;26.30;;;15.50;;
76597;SDS011;65486;53.144;18.134;2023-03-01T08:11:24;20.80;;;13.30;;
76597;SDS011;65486;53.144;18.134;2023-03-01T08:13:54;25.50;;;14.70;;
76597;SDS011;65486;53.144;18.134;2023-03-01T08:16:23;28.10;;;14.90;;
76597;SDS011;65486;53.144;18.134;2023-03-01T08:18:49;25.10;;;15.10;;
76597;SDS011;65486;53.144;18.134;2023-03-01T08:21:19;26.40;;;15.50;;
76597;SDS011;65486;53.144;18.134;2023-03-01T08:23:46;25.40;;;14.50;;
76597;SDS011;65486;53.144;18.134;2023-03-01T08:26:15;26.00;;;15.40;;
76597;SDS011;65486;53.144;18.134;2023-03-01T08:28:44;23.60;;;13.90;;
76597;SDS011;65486;53.144;18.134;2023-03-01T08:33:55;31.00;;;15.30;;
76597;SDS011;65486;53.144;18.134;2023-03-01T08:36:26;30.00;;;14.40;;
76597;SDS011;65486;53.144;18.134;2023-03-01T08:39:04;24.30;;;14.00;;
76597;SDS011;65486;53.144;18.134;2023-03-01T08:41:31;27.60;;;15.90;;
76597;SDS011;65486;53.144;18.134;2023-03-01T08:43:58;35.10;;;22.50;;
76597;SDS011;65486;53.144;18.134;2023-03-01T08:46:28;37.10;;;19.10;;
76597;SDS011;65486;53.144;18.134;2023-03-01T08:49:07;29.90;;;17.60;;
76597;SDS011;65486;53.144;18.134;2023-03-01T08:51:37;27.50;;;16.50;;
76597;SDS011;65486;53.144;18.134;2023-03-01T08:54:16;23.30;;;13.00;;
76597;SDS011;65486;53.144;18.134;2023-03-01T08:56:50;19.10;;;11.80;;
76597;SDS011;65486;53.144;18.134;2023-03-01T08:59:20;22.50;;;13.70;;
76597;SDS011;65486;53.144;18.134;2023-03-01T09:01:52;22.40;;;12.80;;
76597;SDS011;65486;53.144;18.134;2023-03-01T09:04:21;24.10;;;12.40;;
76597;SDS011;65486;53.144;18.134;2023-03-01T09:06:47;19.30;;;12.50;;
76597;SDS011;65486;53.144;18.134;2023-03-01T09:09:17;21.90;;;12.50;;
76597;SDS011;65486;53.144;18.134;2023-03-01T09:11:47;16.60;;;11.00;;
76597;SDS011;65486;53.144;18.134;2023-03-01T09:14:17;18.80;;;12.20;;
76597;SDS011;65486;53.144;18.134;2023-03-01T09:16:51;18.60;;;11.80;;
76597;SDS011;65486;53.144;18.134;2023-03-01T09:19:19;18.50;;;12.00;;
76597;SDS011;65486;53.144;18.134;2023-03-01T09:21:46;18.10;;;10.90;;
76597;SDS011;65486;53.144;18.134;2023-03-01T09:24:20;18.60;;;11.60;;
76597;SDS011;65486;53.144;18.134;2023-03-01T09:26:49;19.30;;;11.40;;
76597;SDS011;65486;53.144;18.134;2023-03-01T09:29:16;17.00;;;12.00;;
76597;SDS011;65486;53.144;18.134;2023-03-01T09:31:43;18.80;;;12.00;;
76597;SDS011;65486;53.144;18.134;2023-03-01T09:34:10;17.00;;;11.50;;
76597;SDS011;65486;53.144;18.134;2023-03-01T09:36:40;17.90;;;11.50;;
76597;SDS011;65486;53.144;18.134;2023-03-01T09:39:09;20.00;;;12.80;;
76597;SDS011;65486;53.144;18.134;2023-03-01T09:41:38;19.40;;;12.90;;
76597;SDS011;65486;53.144;18.134;2023-03-01T09:46:46;21.60;;;14.10;;
76597;SDS011;65486;53.144;18.134;2023-03-01T09:49:15;24.60;;;14.30;;
76597;SDS011;65486;53.144;18.134;2023-03-01T09:51:53;21.00;;;12.90;;
76597;SDS011;65486;53.144;18.134;2023-03-01T09:54:27;22.60;;;14.40;;
76597;SDS011;65486;53.144;18.134;2023-03-01T10:02:21;15.90;;;10.10;;
76597;SDS011;65486;53.144;18.134;2023-03-01T10:05:09;14.20;;;9.40;;
76597;SDS011;65486;53.144;18.134;2023-03-01T10:10:52;14.10;;;9.20;;
76597;SDS011;65486;53.144;18.134;2023-03-01T10:13:27;12.80;;;8.60;;
76597;SDS011;65486;53.144;18.134;2023-03-01T10:16:17;14.10;;;8.50;;
76597;SDS011;65486;53.144;18.134;2023-03-01T10:18:53;15.30;;;9.30;;
76597;SDS011;65486;53.144;18.134;2023-03-01T10:21:29;13.00;;;7.90;;
76597;SDS011;65486;53.144;18.134;2023-03-01T10:24:08;11.70;;;7.90;;
76597;SDS011;65486;53.144;18.134;2023-03-01T10:27:13;12.60;;;8.80;;
76597;SDS011;65486;53.144;18.134;2023-03-01T10:32:29;10.40;;;6.40;;
76597;SDS011;65486;53.144;18.134;2023-03-01T10:34:59;11.90;;;7.10;;
76597;SDS011;65486;53.144;18.134;2023-03-01T10:37:31;12.50;;;7.20;;
76597;SDS011;65486;53.144;18.134;2023-03-01T10:40:09;10.60;;;6.50;;
76597;SDS011;65486;53.144;18.134;2023-03-01T10:42:39;10.70;;;6.70;;
76597;SDS011;65486;53.144;18.134;2023-03-01T10:48:09;12.20;;;8.00;;
76597;SDS011;65486;53.144;18.134;2023-03-01T10:50:45;11.10;;;6.60;;
76597;SDS011;65486;53.144;18.134;2023-03-01T10:53:19;9.30;;;5.90;;
76597;SDS011;65486;53.144;18.134;2023-03-01T10:58:30;11.60;;;6.80;;
76597;SDS011;65486;53.144;18.134;2023-03-01T11:03:42;12.40;;;6.70;;
76597;SDS011;65486;53.144;18.134;2023-03-01T11:08:44;10.80;;;5.60;;
76597;SDS011;65486;53.144;18.134;2023-03-01T11:13:55;10.50;;;5.60;;
76597;SDS011;65486;53.144;18.134;2023-03-01T11:16:23;12.80;;;7.20;;
76597;SDS011;65486;53.144;18.134;2023-03-01T11:19:16;11.50;;;6.40;;
76597;SDS011;65486;53.144;18.134;2023-03-01T11:24:44;13.20;;;5.90;;
76597;SDS011;65486;53.144;18.134;2023-03-01T11:42:40;8.90;;;4.70;;
76597;SDS011;65486;53.144;18.134;2023-03-01T11:45:14;10.60;;;5.30;;
76597;SDS011;65486;53.144;18.134;2023-03-01T11:51:09;12.90;;;6.70;;
76597;SDS011;65486;53.144;18.134;2023-03-01T11:54:09;12.00;;;5.70;;
76597;SDS011;65486;53.144;18.134;2023-03-01T11:56:47;9.60;;;5.50;;
76597;SDS011;65486;53.144;18.134;2023-03-01T11:59:45;10.60;;;5.80;;
76597;SDS011;65486;53.144;18.134;2023-03-01T12:11:41;14.00;;;7.00;;
76597;SDS011;65486;53.144;18.134;2023-03-01T12:39:38;16.00;;;7.00;;
76597;SDS011;65486;53.144;18.134;2023-03-01T12:42:20;17.90;;;7.40;;
76597;SDS011;65486;53.144;18.134;2023-03-01T12:51:03;14.10;;;6.10;;
76597;SDS011;65486;53.144;18.134;2023-03-01T12:53:53;16.80;;;7.30;;
76597;SDS011;65486;53.144;18.134;2023-03-01T12:56:25;15.00;;;7.20;;
76597;SDS011;65486;53.144;18.134;2023-03-01T13:04:28;16.40;;;7.20;;
76597;SDS011;65486;53.144;18.134;2023-03-01T13:09:49;15.80;;;7.90;;
76597;SDS011;65486;53.144;18.134;2023-03-01T13:17:57;17.10;;;7.40;;
76597;SDS011;65486;53.144;18.134;2023-03-01T13:20:47;17.00;;;6.60;;
76597;SDS011;65486;53.144;18.134;2023-03-01T13:23:25;17.20;;;7.20;;
76597;SDS011;65486;53.144;18.134;2023-03-01T13:26:17;13.50;;;6.50;;
76597;SDS011;65486;53.144;18.134;2023-03-01T13:28:50;16.10;;;6.70;;
76597;SDS011;65486;53.144;18.134;2023-03-01T13:34:39;15.50;;;6.40;;
76597;SDS011;65486;53.144;18.134;2023-03-01T13:37:10;14.90;;;7.40;;
76597;SDS011;65486;53.144;18.134;2023-03-01T13:39:51;14.30;;;6.70;;
76597;SDS011;65486;53.144;18.134;2023-03-01T13:42:32;15.00;;;7.00;;
76597;SDS011;65486;53.144;18.134;2023-03-01T13:45:33;16.40;;;7.10;;
76597;SDS011;65486;53.144;18.134;2023-03-01T13:48:28;15.10;;;7.10;;
76597;SDS011;65486;53.144;18.134;2023-03-01T13:51:02;29.30;;;10.10;;
76597;SDS011;65486;53.144;18.134;2023-03-01T13:53:33;18.20;;;7.10;;
76597;SDS011;65486;53.144;18.134;2023-03-01T13:59:27;14.20;;;5.90;;
76597;SDS011;65486;53.144;18.134;2023-03-01T14:02:00;12.10;;;5.40;;
76597;SDS011;65486;53.144;18.134;2023-03-01T14:04:33;15.30;;;7.00;;
76597;SDS011;65486;53.144;18.134;2023-03-01T14:09:56;14.80;;;6.40;;
76597;SDS011;65486;53.144;18.134;2023-03-01T14:15:41;13.50;;;6.70;;
76597;SDS011;65486;53.144;18.134;2023-03-01T14:18:34;16.30;;;7.40;;
76597;SDS011;65486;53.144;18.134;2023-03-01T14:21:08;12.20;;;6.00;;
76597;SDS011;65486;53.144;18.134;2023-03-01T14:23:35;12.70;;;6.50;;
76597;SDS011;65486;53.144;18.134;2023-03-01T14:26:06;15.40;;;7.20;;
76597;SDS011;65486;53.144;18.134;2023-03-01T14:28:34;17.50;;;8.20;;
76597;SDS011;65486;53.144;18.134;2023-03-01T14:33:59;17.30;;;7.20;;
76597;SDS011;65486;53.144;18.134;2023-03-01T14:36:27;16.30;;;7.10;;
76597;SDS011;65486;53.144;18.134;2023-03-01T14:39:00;17.00;;;8.30;;
76597;SDS011;65486;53.144;18.134;2023-03-01T14:41:35;14.70;;;6.70;;
76597;SDS011;65486;53.144;18.134;2023-03-01T14:44:12;17.10;;;7.90;;
76597;SDS011;65486;53.144;18.134;2023-03-01T14:46:51;18.30;;;8.40;;
76597;SDS011;65486;53.144;18.134;2023-03-01T14:49:20;14.80;;;6.70;;
76597;SDS011;65486;53.144;18.134;2023-03-01T14:51:54;17.60;;;7.60;;
76597;SDS011;65486;53.144;18.134;2023-03-01T14:54:30;20.20;;;8.10;;
76597;SDS011;65486;53.144;18.134;2023-03-01T14:57:23;16.20;;;7.90;;
76597;SDS011;65486;53.144;18.134;2023-03-01T14:59:53;17.70;;;7.20;;
76597;SDS011;65486;53.144;18.134;2023-03-01T15:02:27;16.10;;;6.90;;
76597;SDS011;65486;53.144;18.134;2023-03-01T15:05:00;16.30;;;7.80;;
76597;SDS011;65486;53.144;18.134;2023-03-01T15:07:42;15.60;;;7.10;;
76597;SDS011;65486;53.144;18.134;2023-03-01T15:10:22;17.90;;;8.40;;
76597;SDS011;65486;53.144;18.134;2023-03-01T15:12:53;14.30;;;6.30;;
76597;SDS011;65486;53.144;18.134;2023-03-01T15:18:14;15.30;;;7.50;;
76597;SDS011;65486;53.144;18.134;2023-03-01T15:20:43;16.60;;;7.70;;
76597;SDS011;65486;53.144;18.134;2023-03-01T15:26:02;15.90;;;7.50;;
76597;SDS011;65486;53.144;18.134;2023-03-01T15:28:42;15.60;;;7.10;;
76597;SDS011;65486;53.144;18.134;2023-03-01T15:31:23;18.70;;;7.50;;
76597;SDS011;65486;53.144;18.134;2023-03-01T15:34:39;13.10;;;6.60;;
76597;SDS011;65486;53.144;18.134;2023-03-01T15:36:54;14.80;;;6.50;;
76597;SDS011;65486;53.144;18.134;2023-03-01T15:39:52;16.60;;;7.10;;
76597;SDS011;65486;53.144;18.134;2023-03-01T15:45:11;15.40;;;6.50;;
76597;SDS011;65486;53.144;18.134;2023-03-01T15:47:50;15.00;;;6.20;;
76597;SDS011;65486;53.144;18.134;2023-03-01T15:50:36;15.80;;;7.60;;
76597;SDS011;65486;53.144;18.134;2023-03-01T15:53:06;17.40;;;7.30;;
76597;SDS011;65486;53.144;18.134;2023-03-01T15:55:38;14.80;;;6.80;;
76597;SDS011;65486;53.144;18.134;2023-03-01T15:58:20;14.00;;;6.10;;
76597;SDS011;65486;53.144;18.134;2023-03-01T16:00:58;14.40;;;6.90;;
76597;SDS011;65486;53.144;18.134;2023-03-01T16:03:30;13.90;;;6.30;;
76597;SDS011;65486;53.144;18.134;2023-03-01T16:05:57;13.70;;;6.00;;
76597;SDS011;65486;53.144;18.134;2023-03-01T16:08:23;13.60;;;5.30;;
76597;SDS011;65486;53.144;18.134;2023-03-01T16:10:53;11.60;;;5.20;;
76597;SDS011;65486;53.144;18.134;2023-03-01T16:13:24;13.00;;;6.40;;
76597;SDS011;65486;53.144;18.134;2023-03-01T16:15:53;14.30;;;6.00;;
76597;SDS011;65486;53.144;18.134;2023-03-01T16:18:21;12.70;;;5.60;;
76597;SDS011;65486;53.144;18.134;2023-03-01T16:20:58;12.00;;;5.30;;
76597;SDS011;65486;53.144;18.134;2023-03-01T16:24:11;11.40;;;4.80;;
76597;SDS011;65486;53.144;18.134;2023-03-01T16:26:45;11.90;;;4.70;;
76597;SDS011;65486;53.144;18.134;2023-03-01T16:29:12;13.60;;;4.70;;
76597;SDS011;65486;53.144;18.134;2023-03-01T16:31:45;10.00;;;4.70;;
76597;SDS011;65486;53.144;18.134;2023-03-01T16:34:17;13.20;;;4.80;;
76597;SDS011;65486;53.144;18.134;2023-03-01T16:36:46;13.00;;;4.60;;
76597;SDS011;65486;53.144;18.134;2023-03-01T16:39:20;10.60;;;5.10;;
76597;SDS011;65486;53.144;18.134;2023-03-01T16:42:11;11.20;;;5.00;;
76597;SDS011;65486;53.144;18.134;2023-03-01T16:44:39;15.20;;;5.30;;
76597;SDS011;65486;53.144;18.134;2023-03-01T16:47:09;16.90;;;5.10;;
76597;SDS011;65486;53.144;18.134;2023-03-01T16:49:43;13.80;;;5.30;;
76597;SDS011;65486;53.144;18.134;2023-03-01T16:52:15;12.80;;;5.90;;
76597;SDS011;65486;53.144;18.134;2023-03-01T16:54:43;13.90;;;5.80;;
76597;SDS011;65486;53.144;18.134;2023-03-01T16:57:10;17.40;;;5.80;;
76597;SDS011;65486;53.144;18.134;2023-03-01T16:59:40;18.20;;;5.60;;
76597;SDS011;65486;53.144;18.134;2023-03-01T17:02:11;14.60;;;5.80;;
76597;SDS011;65486;53.144;18.134;2023-03-01T17:04:39;18.30;;;6.00;;
76597;SDS011;65486;53.144;18.134;2023-03-01T17:07:11;17.20;;;5.70;;
76597;SDS011;65486;53.144;18.134;2023-03-01T17:09:45;13.30;;;5.50;;